sensor_id;sensor_type;location;lat;lon;timestamp;P1;durP1;ratioP1;P2;durP2;ratioP2
75971;SDS011;64651;47.540;19.088;2023-06-14T00:03:18;11.07;;;4.47;;
75971;SDS011;64651;47.540;19.088;2023-06-14T00:08:22;10.43;;;4.47;;
75971;SDS011;64651;47.540;19.088;2023-06-14T00:13:26;10.25;;;4.12;;
75971;SDS011;64651;47.540;19.088;2023-06-14T00:18:29;13.10;;;4.73;;
75971;SDS011;64651;47.540;19.088;2023-06-14T00:23:32;11.82;;;4.93;;
75971;SDS011;64651;47.540;19.088;2023-06-14T00:28:34;11.85;;;4.68;;
75971;SDS011;64651;47.540;19.088;2023-06-14T00:33:37;12.10;;;4.63;;
75971;SDS011;64651;47.540;19.088;2023-06-14T00:38:39;14.23;;;5.25;;
75971;SDS011;64651;47.540;19.088;2023-06-14T00:43:41;13.23;;;5.60;;
75971;SDS011;64651;47.540;19.088;2023-06-14T00:48:43;12.07;;;5.15;;
75971;SDS011;64651;47.540;19.088;2023-06-14T00:53:46;13.30;;;5.07;;
75971;SDS011;64651;47.540;19.088;2023-06-14T00:58:50;13.47;;;5.67;;
75971;SDS011;64651;47.540;19.088;2023-06-14T01:03:53;12.82;;;5.32;;
75971;SDS011;64651;47.540;19.088;2023-06-14T01:14:29;11.60;;;5.03;;
75971;SDS011;64651;47.540;19.088;2023-06-14T01:19:34;12.73;;;4.70;;
75971;SDS011;64651;47.540;19.088;2023-06-14T01:24:36;11.30;;;4.90;;
75971;SDS011;64651;47.540;19.088;2023-06-14T01:29:41;13.45;;;4.97;;
75971;SDS011;64651;47.540;19.088;2023-06-14T01:34:47;11.97;;;4.87;;
75971;SDS011;64651;47.540;19.088;2023-06-14T01:39:50;12.30;;;5.00;;
75971;SDS011;64651;47.540;19.088;2023-06-14T01:44:52;11.25;;;4.85;;
75971;SDS011;64651;47.540;19.088;2023-06-14T01:49:56;13.97;;;5.03;;
75971;SDS011;64651;47.540;19.088;2023-06-14T01:54:59;13.88;;;5.20;;
75971;SDS011;64651;47.540;19.088;2023-06-14T02:00:04;14.63;;;5.60;;
75971;SDS011;64651;47.540;19.088;2023-06-14T02:05:12;16.30;;;5.53;;
75971;SDS011;64651;47.540;19.088;2023-06-14T02:10:15;11.35;;;5.03;;
75971;SDS011;64651;47.540;19.088;2023-06-14T02:15:19;11.60;;;5.13;;
75971;SDS011;64651;47.540;19.088;2023-06-14T02:20:21;13.25;;;5.80;;
75971;SDS011;64651;47.540;19.088;2023-06-14T02:25:23;14.10;;;5.77;;
75971;SDS011;64651;47.540;19.088;2023-06-14T02:30:26;13.30;;;5.50;;
75971;SDS011;64651;47.540;19.088;2023-06-14T02:35:29;14.05;;;6.03;;
75971;SDS011;64651;47.540;19.088;2023-06-14T02:40:32;15.70;;;5.80;;
75971;SDS011;64651;47.540;19.088;2023-06-14T02:45:34;13.52;;;5.82;;
75971;SDS011;64651;47.540;19.088;2023-06-14T02:50:36;14.30;;;5.90;;
75971;SDS011;64651;47.540;19.088;2023-06-14T02:55:38;13.18;;;5.57;;
75971;SDS011;64651;47.540;19.088;2023-06-14T03:00:42;14.93;;;6.07;;
75971;SDS011;64651;47.540;19.088;2023-06-14T03:05:46;14.20;;;5.80;;
75971;SDS011;64651;47.540;19.088;2023-06-14T03:10:51;15.43;;;6.32;;
75971;SDS011;64651;47.540;19.088;2023-06-14T03:15:53;14.17;;;6.53;;
75971;SDS011;64651;47.540;19.088;2023-06-14T03:20:58;17.48;;;6.62;;
75971;SDS011;64651;47.540;19.088;2023-06-14T03:26:00;24.55;;;11.27;;
75971;SDS011;64651;47.540;19.088;2023-06-14T03:31:02;15.63;;;6.50;;
75971;SDS011;64651;47.540;19.088;2023-06-14T03:36:05;15.93;;;6.60;;
75971;SDS011;64651;47.540;19.088;2023-06-14T03:41:08;15.37;;;7.13;;
75971;SDS011;64651;47.540;19.088;2023-06-14T03:46:11;16.67;;;6.30;;
75971;SDS011;64651;47.540;19.088;2023-06-14T03:51:13;15.50;;;6.32;;
75971;SDS011;64651;47.540;19.088;2023-06-14T03:56:15;17.87;;;6.67;;
75971;SDS011;64651;47.540;19.088;2023-06-14T04:01:17;15.88;;;6.50;;
75971;SDS011;64651;47.540;19.088;2023-06-14T04:06:19;16.67;;;6.67;;
75971;SDS011;64651;47.540;19.088;2023-06-14T04:11:22;15.48;;;7.45;;
75971;SDS011;64651;47.540;19.088;2023-06-14T04:16:24;15.27;;;6.62;;
75971;SDS011;64651;47.540;19.088;2023-06-14T04:21:26;17.73;;;6.90;;
75971;SDS011;64651;47.540;19.088;2023-06-14T04:26:30;15.48;;;6.05;;
75971;SDS011;64651;47.540;19.088;2023-06-14T04:31:35;14.77;;;6.30;;
75971;SDS011;64651;47.540;19.088;2023-06-14T04:36:41;15.77;;;6.60;;
75971;SDS011;64651;47.540;19.088;2023-06-14T04:41:51;16.67;;;6.70;;
75971;SDS011;64651;47.540;19.088;2023-06-14T04:46:54;15.47;;;6.23;;
75971;SDS011;64651;47.540;19.088;2023-06-14T04:51:57;16.58;;;6.65;;
75971;SDS011;64651;47.540;19.088;2023-06-14T04:57:01;14.80;;;6.30;;
75971;SDS011;64651;47.540;19.088;2023-06-14T05:02:04;15.35;;;6.20;;
75971;SDS011;64651;47.540;19.088;2023-06-14T05:07:08;15.80;;;6.68;;
75971;SDS011;64651;47.540;19.088;2023-06-14T05:12:11;15.63;;;6.17;;
75971;SDS011;64651;47.540;19.088;2023-06-14T05:17:13;16.15;;;6.65;;
75971;SDS011;64651;47.540;19.088;2023-06-14T05:22:16;16.30;;;7.07;;
75971;SDS011;64651;47.540;19.088;2023-06-14T05:27:18;15.43;;;7.00;;
75971;SDS011;64651;47.540;19.088;2023-06-14T05:32:20;14.30;;;6.32;;
75971;SDS011;64651;47.540;19.088;2023-06-14T05:37:22;15.97;;;7.07;;
75971;SDS011;64651;47.540;19.088;2023-06-14T05:42:25;16.98;;;7.00;;
75971;SDS011;64651;47.540;19.088;2023-06-14T05:47:27;16.57;;;6.87;;
75971;SDS011;64651;47.540;19.088;2023-06-14T05:52:29;16.80;;;6.57;;
75971;SDS011;64651;47.540;19.088;2023-06-14T05:57:33;18.27;;;7.05;;
75971;SDS011;64651;47.540;19.088;2023-06-14T06:02:35;16.50;;;6.57;;
75971;SDS011;64651;47.540;19.088;2023-06-14T06:07:38;16.20;;;6.35;;
75971;SDS011;64651;47.540;19.088;2023-06-14T06:12:42;14.40;;;6.17;;
75971;SDS011;64651;47.540;19.088;2023-06-14T06:17:44;14.35;;;6.30;;
75971;SDS011;64651;47.540;19.088;2023-06-14T06:22:59;14.65;;;6.40;;
75971;SDS011;64651;47.540;19.088;2023-06-14T06:28:02;18.57;;;6.57;;
75971;SDS011;64651;47.540;19.088;2023-06-14T06:33:05;12.55;;;5.90;;
75971;SDS011;64651;47.540;19.088;2023-06-14T06:38:07;12.93;;;5.50;;
75971;SDS011;64651;47.540;19.088;2023-06-14T06:43:12;13.20;;;5.68;;
75971;SDS011;64651;47.540;19.088;2023-06-14T06:48:21;12.37;;;5.72;;
75971;SDS011;64651;47.540;19.088;2023-06-14T06:53:24;15.67;;;6.43;;
75971;SDS011;64651;47.540;19.088;2023-06-14T06:58:40;13.05;;;5.60;;
75971;SDS011;64651;47.540;19.088;2023-06-14T07:03:43;14.70;;;6.10;;
75971;SDS011;64651;47.540;19.088;2023-06-14T07:08:45;13.43;;;5.72;;
75971;SDS011;64651;47.540;19.088;2023-06-14T07:13:50;14.18;;;5.87;;
75971;SDS011;64651;47.540;19.088;2023-06-14T07:18:52;15.07;;;5.80;;
75971;SDS011;64651;47.540;19.088;2023-06-14T07:23:55;13.10;;;5.40;;
75971;SDS011;64651;47.540;19.088;2023-06-14T07:28:57;14.93;;;5.50;;
75971;SDS011;64651;47.540;19.088;2023-06-14T07:34:00;13.18;;;5.78;;
75971;SDS011;64651;47.540;19.088;2023-06-14T07:39:02;16.05;;;6.20;;
75971;SDS011;64651;47.540;19.088;2023-06-14T07:44:05;11.93;;;6.07;;
75971;SDS011;64651;47.540;19.088;2023-06-14T07:49:08;11.20;;;5.82;;
75971;SDS011;64651;47.540;19.088;2023-06-14T07:54:10;12.93;;;5.90;;
75971;SDS011;64651;47.540;19.088;2023-06-14T07:59:12;12.63;;;6.10;;
75971;SDS011;64651;47.540;19.088;2023-06-14T08:04:14;11.48;;;5.55;;
75971;SDS011;64651;47.540;19.088;2023-06-14T08:09:17;13.50;;;5.90;;
75971;SDS011;64651;47.540;19.088;2023-06-14T08:14:19;11.20;;;5.72;;
75971;SDS011;64651;47.540;19.088;2023-06-14T08:19:22;13.83;;;5.70;;
75971;SDS011;64651;47.540;19.088;2023-06-14T08:24:24;11.55;;;5.35;;
75971;SDS011;64651;47.540;19.088;2023-06-14T08:29:29;13.62;;;6.45;;
75971;SDS011;64651;47.540;19.088;2023-06-14T08:34:32;12.70;;;6.83;;
75971;SDS011;64651;47.540;19.088;2023-06-14T08:39:34;13.85;;;6.50;;
75971;SDS011;64651;47.540;19.088;2023-06-14T08:44:37;12.20;;;6.27;;
75971;SDS011;64651;47.540;19.088;2023-06-14T08:49:39;11.70;;;6.28;;
75971;SDS011;64651;47.540;19.088;2023-06-14T08:54:46;10.65;;;5.75;;
75971;SDS011;64651;47.540;19.088;2023-06-14T08:59:50;13.20;;;6.43;;
75971;SDS011;64651;47.540;19.088;2023-06-14T09:04:56;12.40;;;6.32;;
75971;SDS011;64651;47.540;19.088;2023-06-14T09:15:30;10.85;;;5.65;;
75971;SDS011;64651;47.540;19.088;2023-06-14T09:20:33;14.52;;;6.30;;
75971;SDS011;64651;47.540;19.088;2023-06-14T09:25:43;11.40;;;5.40;;
75971;SDS011;64651;47.540;19.088;2023-06-14T09:30:46;11.12;;;5.85;;
75971;SDS011;64651;47.540;19.088;2023-06-14T09:35:51;12.73;;;5.47;;
75971;SDS011;64651;47.540;19.088;2023-06-14T09:40:58;14.02;;;5.03;;
75971;SDS011;64651;47.540;19.088;2023-06-14T09:46:00;11.68;;;5.78;;
75971;SDS011;64651;47.540;19.088;2023-06-14T09:51:03;9.60;;;5.17;;
75971;SDS011;64651;47.540;19.088;2023-06-14T09:56:07;10.65;;;5.72;;
75971;SDS011;64651;47.540;19.088;2023-06-14T10:01:11;9.60;;;6.10;;
75971;SDS011;64651;47.540;19.088;2023-06-14T10:06:15;10.23;;;7.15;;
75971;SDS011;64651;47.540;19.088;2023-06-14T10:11:19;10.57;;;6.97;;
75971;SDS011;64651;47.540;19.088;2023-06-14T10:16:27;13.57;;;7.03;;
75971;SDS011;64651;47.540;19.088;2023-06-14T10:21:37;10.52;;;7.78;;
75971;SDS011;64651;47.540;19.088;2023-06-14T10:26:51;9.70;;;8.40;;
75971;SDS011;64651;47.540;19.088;2023-06-14T10:31:58;11.70;;;9.25;;
75971;SDS011;64651;47.540;19.088;2023-06-14T10:37:05;9.27;;;8.18;;
75971;SDS011;64651;47.540;19.088;2023-06-14T10:42:09;11.03;;;8.70;;
75971;SDS011;64651;47.540;19.088;2023-06-14T10:47:20;9.32;;;8.43;;
75971;SDS011;64651;47.540;19.088;2023-06-14T10:52:40;10.27;;;6.93;;
75971;SDS011;64651;47.540;19.088;2023-06-14T10:57:48;10.05;;;7.22;;
75971;SDS011;64651;47.540;19.088;2023-06-14T11:03:06;9.20;;;6.87;;
75971;SDS011;64651;47.540;19.088;2023-06-14T11:13:41;9.75;;;6.78;;
75971;SDS011;64651;47.540;19.088;2023-06-14T11:18:48;9.87;;;6.67;;
75971;SDS011;64651;47.540;19.088;2023-06-14T11:23:51;9.32;;;6.20;;
75971;SDS011;64651;47.540;19.088;2023-06-14T11:28:55;9.00;;;6.53;;
75971;SDS011;64651;47.540;19.088;2023-06-14T11:33:59;9.23;;;5.63;;
75971;SDS011;64651;47.540;19.088;2023-06-14T11:39:02;9.23;;;6.43;;
75971;SDS011;64651;47.540;19.088;2023-06-14T11:44:07;10.47;;;6.37;;
75971;SDS011;64651;47.540;19.088;2023-06-14T11:49:10;8.82;;;6.47;;
75971;SDS011;64651;47.540;19.088;2023-06-14T11:54:12;10.85;;;7.95;;
75971;SDS011;64651;47.540;19.088;2023-06-14T11:59:15;11.33;;;8.73;;
75971;SDS011;64651;47.540;19.088;2023-06-14T12:04:24;11.60;;;8.60;;
75971;SDS011;64651;47.540;19.088;2023-06-14T12:09:28;11.30;;;9.63;;
75971;SDS011;64651;47.540;19.088;2023-06-14T12:14:31;9.85;;;8.80;;
75971;SDS011;64651;47.540;19.088;2023-06-14T12:19:33;9.85;;;8.52;;
75971;SDS011;64651;47.540;19.088;2023-06-14T12:24:45;10.90;;;9.83;;
75971;SDS011;64651;47.540;19.088;2023-06-14T12:29:48;11.65;;;10.13;;
75971;SDS011;64651;47.540;19.088;2023-06-14T12:35:00;11.13;;;9.50;;
75971;SDS011;64651;47.540;19.088;2023-06-14T12:40:03;12.27;;;11.07;;
75971;SDS011;64651;47.540;19.088;2023-06-14T12:45:08;11.20;;;10.10;;
75971;SDS011;64651;47.540;19.088;2023-06-14T12:50:10;10.63;;;8.30;;
75971;SDS011;64651;47.540;19.088;2023-06-14T12:55:13;10.77;;;8.40;;
75971;SDS011;64651;47.540;19.088;2023-06-14T13:00:16;10.40;;;7.97;;
75971;SDS011;64651;47.540;19.088;2023-06-14T13:05:20;9.50;;;8.15;;
75971;SDS011;64651;47.540;19.088;2023-06-14T13:10:22;11.40;;;7.85;;
75971;SDS011;64651;47.540;19.088;2023-06-14T13:15:25;9.87;;;6.80;;
75971;SDS011;64651;47.540;19.088;2023-06-14T13:24:37;8.70;;;5.18;;
75971;SDS011;64651;47.540;19.088;2023-06-14T13:29:40;8.77;;;4.87;;
75971;SDS011;64651;47.540;19.088;2023-06-14T13:34:42;8.23;;;5.05;;
75971;SDS011;64651;47.540;19.088;2023-06-14T13:39:44;8.43;;;5.32;;
75971;SDS011;64651;47.540;19.088;2023-06-14T13:44:46;7.90;;;5.00;;
75971;SDS011;64651;47.540;19.088;2023-06-14T13:49:49;7.12;;;4.15;;
75971;SDS011;64651;47.540;19.088;2023-06-14T13:54:51;10.60;;;4.40;;
75971;SDS011;64651;47.540;19.088;2023-06-14T13:59:53;8.07;;;4.68;;
75971;SDS011;64651;47.540;19.088;2023-06-14T14:04:57;8.52;;;5.25;;
75971;SDS011;64651;47.540;19.088;2023-06-14T14:09:59;10.27;;;5.70;;
75971;SDS011;64651;47.540;19.088;2023-06-14T14:15:01;8.65;;;4.82;;
75971;SDS011;64651;47.540;19.088;2023-06-14T14:20:04;11.47;;;5.90;;
75971;SDS011;64651;47.540;19.088;2023-06-14T14:25:07;9.18;;;4.90;;
75971;SDS011;64651;47.540;19.088;2023-06-14T14:30:10;8.48;;;4.68;;
75971;SDS011;64651;47.540;19.088;2023-06-14T14:35:13;8.35;;;4.75;;
75971;SDS011;64651;47.540;19.088;2023-06-14T14:40:15;8.90;;;4.43;;
75971;SDS011;64651;47.540;19.088;2023-06-14T14:45:18;10.07;;;5.37;;
75971;SDS011;64651;47.540;19.088;2023-06-14T14:50:20;8.63;;;6.00;;
75971;SDS011;64651;47.540;19.088;2023-06-14T14:55:23;8.50;;;6.12;;
75971;SDS011;64651;47.540;19.088;2023-06-14T15:00:25;10.17;;;5.90;;
75971;SDS011;64651;47.540;19.088;2023-06-14T15:05:27;9.48;;;5.50;;
75971;SDS011;64651;47.540;19.088;2023-06-14T15:10:30;8.50;;;5.93;;
75971;SDS011;64651;47.540;19.088;2023-06-14T15:15:32;8.38;;;5.60;;
75971;SDS011;64651;47.540;19.088;2023-06-14T15:20:34;9.40;;;5.57;;
75971;SDS011;64651;47.540;19.088;2023-06-14T15:25:37;9.20;;;5.03;;
75971;SDS011;64651;47.540;19.088;2023-06-14T15:30:39;8.85;;;4.80;;
75971;SDS011;64651;47.540;19.088;2023-06-14T15:35:41;9.53;;;4.43;;
75971;SDS011;64651;47.540;19.088;2023-06-14T15:40:44;8.98;;;4.95;;
75971;SDS011;64651;47.540;19.088;2023-06-14T15:45:46;10.32;;;5.57;;
75971;SDS011;64651;47.540;19.088;2023-06-14T15:50:48;12.07;;;4.97;;
75971;SDS011;64651;47.540;19.088;2023-06-14T15:55:50;8.75;;;5.32;;
75971;SDS011;64651;47.540;19.088;2023-06-14T16:00:52;8.00;;;4.80;;
75971;SDS011;64651;47.540;19.088;2023-06-14T16:05:55;8.55;;;4.62;;
75971;SDS011;64651;47.540;19.088;2023-06-14T16:10:58;7.97;;;4.32;;
75971;SDS011;64651;47.540;19.088;2023-06-14T16:16:00;10.03;;;4.73;;
75971;SDS011;64651;47.540;19.088;2023-06-14T16:21:02;8.85;;;4.07;;
75971;SDS011;64651;47.540;19.088;2023-06-14T16:26:09;8.93;;;4.60;;
75971;SDS011;64651;47.540;19.088;2023-06-14T16:31:13;7.97;;;4.10;;
75971;SDS011;64651;47.540;19.088;2023-06-14T16:36:17;8.07;;;4.03;;
75971;SDS011;64651;47.540;19.088;2023-06-14T16:41:19;7.40;;;4.25;;
75971;SDS011;64651;47.540;19.088;2023-06-14T16:46:31;9.05;;;4.25;;
75971;SDS011;64651;47.540;19.088;2023-06-14T16:51:34;9.33;;;4.43;;
75971;SDS011;64651;47.540;19.088;2023-06-14T16:56:36;8.30;;;4.47;;
75971;SDS011;64651;47.540;19.088;2023-06-14T17:01:39;8.57;;;4.10;;
75971;SDS011;64651;47.540;19.088;2023-06-14T17:06:41;8.23;;;4.50;;
75971;SDS011;64651;47.540;19.088;2023-06-14T17:11:43;8.90;;;4.45;;
75971;SDS011;64651;47.540;19.088;2023-06-14T17:16:46;12.53;;;4.67;;
75971;SDS011;64651;47.540;19.088;2023-06-14T17:21:48;10.00;;;4.10;;
75971;SDS011;64651;47.540;19.088;2023-06-14T17:26:54;9.65;;;4.07;;
75971;SDS011;64651;47.540;19.088;2023-06-14T17:31:56;8.98;;;4.40;;
75971;SDS011;64651;47.540;19.088;2023-06-14T17:36:59;9.90;;;4.50;;
75971;SDS011;64651;47.540;19.088;2023-06-14T17:42:02;8.57;;;4.00;;
75971;SDS011;64651;47.540;19.088;2023-06-14T17:47:04;8.30;;;4.65;;
75971;SDS011;64651;47.540;19.088;2023-06-14T17:52:06;9.07;;;4.47;;
75971;SDS011;64651;47.540;19.088;2023-06-14T17:57:09;8.93;;;4.60;;
75971;SDS011;64651;47.540;19.088;2023-06-14T18:02:13;9.60;;;4.65;;
75971;SDS011;64651;47.540;19.088;2023-06-14T18:07:16;9.47;;;4.33;;
75971;SDS011;64651;47.540;19.088;2023-06-14T18:12:18;9.55;;;4.40;;
75971;SDS011;64651;47.540;19.088;2023-06-14T18:17:20;8.15;;;3.97;;
75971;SDS011;64651;47.540;19.088;2023-06-14T18:22:23;9.30;;;4.20;;
75971;SDS011;64651;47.540;19.088;2023-06-14T18:27:25;11.15;;;4.20;;
75971;SDS011;64651;47.540;19.088;2023-06-14T18:32:28;8.50;;;4.50;;
75971;SDS011;64651;47.540;19.088;2023-06-14T18:37:33;10.00;;;4.12;;
75971;SDS011;64651;47.540;19.088;2023-06-14T18:42:36;10.05;;;4.05;;
75971;SDS011;64651;47.540;19.088;2023-06-14T18:47:38;10.13;;;4.67;;
75971;SDS011;64651;47.540;19.088;2023-06-14T18:52:41;8.57;;;4.22;;
75971;SDS011;64651;47.540;19.088;2023-06-14T18:57:44;9.07;;;4.10;;
75971;SDS011;64651;47.540;19.088;2023-06-14T19:02:46;10.25;;;4.90;;
75971;SDS011;64651;47.540;19.088;2023-06-14T19:07:49;11.18;;;4.70;;
75971;SDS011;64651;47.540;19.088;2023-06-14T19:12:51;9.65;;;4.78;;
75971;SDS011;64651;47.540;19.088;2023-06-14T19:18:00;11.60;;;5.05;;
75971;SDS011;64651;47.540;19.088;2023-06-14T19:23:04;10.57;;;5.03;;
75971;SDS011;64651;47.540;19.088;2023-06-14T19:28:06;11.77;;;5.40;;
75971;SDS011;64651;47.540;19.088;2023-06-14T19:33:09;11.55;;;5.45;;
75971;SDS011;64651;47.540;19.088;2023-06-14T19:38:11;11.20;;;4.70;;
75971;SDS011;64651;47.540;19.088;2023-06-14T19:43:14;9.32;;;4.72;;
75971;SDS011;64651;47.540;19.088;2023-06-14T19:48:17;11.83;;;5.10;;
75971;SDS011;64651;47.540;19.088;2023-06-14T19:53:22;10.35;;;5.00;;
75971;SDS011;64651;47.540;19.088;2023-06-14T19:58:24;12.07;;;4.80;;
75971;SDS011;64651;47.540;19.088;2023-06-14T20:03:26;11.15;;;5.62;;
75971;SDS011;64651;47.540;19.088;2023-06-14T20:08:28;9.65;;;4.57;;
75971;SDS011;64651;47.540;19.088;2023-06-14T20:13:32;10.33;;;4.87;;
75971;SDS011;64651;47.540;19.088;2023-06-14T20:18:35;10.48;;;4.37;;
75971;SDS011;64651;47.540;19.088;2023-06-14T20:23:37;9.18;;;4.20;;
75971;SDS011;64651;47.540;19.088;2023-06-14T20:28:39;7.97;;;4.07;;
75971;SDS011;64651;47.540;19.088;2023-06-14T20:33:43;10.95;;;4.45;;
75971;SDS011;64651;47.540;19.088;2023-06-14T20:38:46;9.53;;;4.53;;
75971;SDS011;64651;47.540;19.088;2023-06-14T20:43:48;10.27;;;4.50;;
75971;SDS011;64651;47.540;19.088;2023-06-14T20:48:51;10.50;;;4.22;;
75971;SDS011;64651;47.540;19.088;2023-06-14T20:53:53;9.27;;;4.35;;
75971;SDS011;64651;47.540;19.088;2023-06-14T20:58:55;9.13;;;4.28;;
75971;SDS011;64651;47.540;19.088;2023-06-14T21:03:58;9.83;;;4.50;;
75971;SDS011;64651;47.540;19.088;2023-06-14T21:09:00;15.40;;;4.80;;
75971;SDS011;64651;47.540;19.088;2023-06-14T21:14:02;9.50;;;3.95;;
75971;SDS011;64651;47.540;19.088;2023-06-14T21:19:04;10.50;;;4.50;;
75971;SDS011;64651;47.540;19.088;2023-06-14T21:24:07;9.77;;;4.20;;
75971;SDS011;64651;47.540;19.088;2023-06-14T21:29:10;10.73;;;4.23;;
75971;SDS011;64651;47.540;19.088;2023-06-14T21:34:13;11.77;;;4.55;;
75971;SDS011;64651;47.540;19.088;2023-06-14T21:39:15;9.77;;;4.15;;
75971;SDS011;64651;47.540;19.088;2023-06-14T21:44:17;9.52;;;4.20;;
75971;SDS011;64651;47.540;19.088;2023-06-14T21:49:19;8.88;;;4.70;;
75971;SDS011;64651;47.540;19.088;2023-06-14T21:54:22;8.93;;;4.20;;
75971;SDS011;64651;47.540;19.088;2023-06-14T21:59:24;9.18;;;4.35;;
75971;SDS011;64651;47.540;19.088;2023-06-14T22:04:26;9.95;;;4.35;;
75971;SDS011;64651;47.540;19.088;2023-06-14T22:09:28;10.88;;;4.50;;
75971;SDS011;64651;47.540;19.088;2023-06-14T22:14:31;9.55;;;4.60;;
75971;SDS011;64651;47.540;19.088;2023-06-14T22:19:35;10.33;;;4.60;;
75971;SDS011;64651;47.540;19.088;2023-06-14T22:24:39;9.25;;;4.12;;
75971;SDS011;64651;47.540;19.088;2023-06-14T22:29:42;10.25;;;4.72;;
75971;SDS011;64651;47.540;19.088;2023-06-14T22:34:45;10.20;;;4.68;;
75971;SDS011;64651;47.540;19.088;2023-06-14T22:39:47;10.52;;;4.40;;
75971;SDS011;64651;47.540;19.088;2023-06-14T22:44:49;10.60;;;4.77;;
75971;SDS011;64651;47.540;19.088;2023-06-14T22:49:52;10.73;;;4.45;;
75971;SDS011;64651;47.540;19.088;2023-06-14T22:55:10;13.18;;;5.20;;
75971;SDS011;64651;47.540;19.088;2023-06-14T23:00:13;9.77;;;4.62;;
75971;SDS011;64651;47.540;19.088;2023-06-14T23:05:16;11.23;;;4.78;;
75971;SDS011;64651;47.540;19.088;2023-06-14T23:10:20;10.17;;;4.87;;
75971;SDS011;64651;47.540;19.088;2023-06-14T23:15:24;10.63;;;5.07;;
75971;SDS011;64651;47.540;19.088;2023-06-14T23:20:27;11.55;;;4.87;;
75971;SDS011;64651;47.540;19.088;2023-06-14T23:25:31;10.50;;;5.18;;
75971;SDS011;64651;47.540;19.088;2023-06-14T23:30:36;11.07;;;4.97;;
75971;SDS011;64651;47.540;19.088;2023-06-14T23:35:39;8.97;;;4.57;;
75971;SDS011;64651;47.540;19.088;2023-06-14T23:40:42;10.32;;;5.20;;
75971;SDS011;64651;47.540;19.088;2023-06-14T23:45:47;10.35;;;5.20;;
75971;SDS011;64651;47.540;19.088;2023-06-14T23:50:52;11.40;;;5.60;;
75971;SDS011;64651;47.540;19.088;2023-06-14T23:55:55;12.57;;;5.28;;
